sensor_id;sensor_type;location;lat;lon;timestamp;P1;durP1;ratioP1;P2;durP2;ratioP2
43877;SDS011;29815;48.184;11.268;2023-01-19T00:01:45;13.68;;;7.90;;
43877;SDS011;29815;48.184;11.268;2023-01-19T00:04:15;14.68;;;10.10;;
43877;SDS011;29815;48.184;11.268;2023-01-19T00:06:44;12.40;;;8.25;;
43877;SDS011;29815;48.184;11.268;2023-01-19T00:09:14;13.18;;;8.77;;
43877;SDS011;29815;48.184;11.268;2023-01-19T00:11:43;10.43;;;7.95;;
43877;SDS011;29815;48.184;11.268;2023-01-19T00:14:13;15.27;;;8.38;;
43877;SDS011;29815;48.184;11.268;2023-01-19T00:16:42;12.48;;;7.57;;
43877;SDS011;29815;48.184;11.268;2023-01-19T00:19:13;11.65;;;8.55;;
43877;SDS011;29815;48.184;11.268;2023-01-19T00:21:42;14.05;;;8.48;;
43877;SDS011;29815;48.184;11.268;2023-01-19T00:24:12;15.48;;;10.55;;
43877;SDS011;29815;48.184;11.268;2023-01-19T00:26:42;15.95;;;10.05;;
43877;SDS011;29815;48.184;11.268;2023-01-19T00:29:12;13.63;;;9.65;;
43877;SDS011;29815;48.184;11.268;2023-01-19T00:31:42;13.82;;;9.35;;
43877;SDS011;29815;48.184;11.268;2023-01-19T00:34:13;14.02;;;9.43;;
43877;SDS011;29815;48.184;11.268;2023-01-19T00:36:43;20.95;;;10.55;;
43877;SDS011;29815;48.184;11.268;2023-01-19T00:39:12;17.52;;;10.73;;
43877;SDS011;29815;48.184;11.268;2023-01-19T00:41:42;14.95;;;9.73;;
43877;SDS011;29815;48.184;11.268;2023-01-19T00:44:29;19.88;;;13.05;;
43877;SDS011;29815;48.184;11.268;2023-01-19T00:47:00;16.50;;;10.82;;
43877;SDS011;29815;48.184;11.268;2023-01-19T00:49:31;13.00;;;10.70;;
43877;SDS011;29815;48.184;11.268;2023-01-19T00:52:00;14.93;;;9.65;;
43877;SDS011;29815;48.184;11.268;2023-01-19T00:54:30;18.02;;;11.63;;
43877;SDS011;29815;48.184;11.268;2023-01-19T00:56:59;16.73;;;10.63;;
43877;SDS011;29815;48.184;11.268;2023-01-19T00:59:29;14.98;;;10.32;;
43877;SDS011;29815;48.184;11.268;2023-01-19T01:02:00;15.75;;;10.23;;
43877;SDS011;29815;48.184;11.268;2023-01-19T01:04:30;11.32;;;8.77;;
43877;SDS011;29815;48.184;11.268;2023-01-19T01:06:59;10.65;;;7.82;;
43877;SDS011;29815;48.184;11.268;2023-01-19T01:09:29;12.50;;;7.78;;
43877;SDS011;29815;48.184;11.268;2023-01-19T01:11:59;12.43;;;9.45;;
43877;SDS011;29815;48.184;11.268;2023-01-19T01:14:28;13.55;;;9.68;;
43877;SDS011;29815;48.184;11.268;2023-01-19T01:16:58;10.43;;;8.18;;
43877;SDS011;29815;48.184;11.268;2023-01-19T01:19:29;10.93;;;7.50;;
43877;SDS011;29815;48.184;11.268;2023-01-19T01:22:02;11.00;;;8.68;;
43877;SDS011;29815;48.184;11.268;2023-01-19T01:27:01;11.77;;;8.20;;
43877;SDS011;29815;48.184;11.268;2023-01-19T01:29:31;13.32;;;8.52;;
43877;SDS011;29815;48.184;11.268;2023-01-19T01:32:03;11.65;;;7.45;;
43877;SDS011;29815;48.184;11.268;2023-01-19T01:34:32;10.98;;;6.43;;
43877;SDS011;29815;48.184;11.268;2023-01-19T01:37:02;9.43;;;7.57;;
43877;SDS011;29815;48.184;11.268;2023-01-19T01:39:34;10.77;;;6.83;;
43877;SDS011;29815;48.184;11.268;2023-01-19T01:42:08;10.88;;;7.43;;
43877;SDS011;29815;48.184;11.268;2023-01-19T01:44:47;12.45;;;6.55;;
43877;SDS011;29815;48.184;11.268;2023-01-19T01:47:24;11.40;;;7.50;;
43877;SDS011;29815;48.184;11.268;2023-01-19T01:50:02;13.07;;;7.85;;
43877;SDS011;29815;48.184;11.268;2023-01-19T01:52:39;9.85;;;7.53;;
43877;SDS011;29815;48.184;11.268;2023-01-19T01:55:34;9.07;;;7.30;;
43877;SDS011;29815;48.184;11.268;2023-01-19T01:58:09;10.48;;;7.68;;
43877;SDS011;29815;48.184;11.268;2023-01-19T02:00:40;9.85;;;7.65;;
43877;SDS011;29815;48.184;11.268;2023-01-19T02:03:29;9.88;;;7.53;;
43877;SDS011;29815;48.184;11.268;2023-01-19T02:06:05;12.18;;;8.00;;
43877;SDS011;29815;48.184;11.268;2023-01-19T02:08:37;15.38;;;8.40;;
43877;SDS011;29815;48.184;11.268;2023-01-19T02:11:32;11.38;;;7.78;;
43877;SDS011;29815;48.184;11.268;2023-01-19T02:14:21;12.23;;;7.90;;
43877;SDS011;29815;48.184;11.268;2023-01-19T02:16:50;10.80;;;7.80;;
43877;SDS011;29815;48.184;11.268;2023-01-19T02:19:27;9.93;;;7.97;;
43877;SDS011;29815;48.184;11.268;2023-01-19T02:22:04;12.02;;;9.02;;
43877;SDS011;29815;48.184;11.268;2023-01-19T02:24:45;12.82;;;8.90;;
43877;SDS011;29815;48.184;11.268;2023-01-19T02:27:16;12.40;;;8.45;;
43877;SDS011;29815;48.184;11.268;2023-01-19T02:29:46;12.88;;;8.23;;
43877;SDS011;29815;48.184;11.268;2023-01-19T02:32:16;11.25;;;9.55;;
43877;SDS011;29815;48.184;11.268;2023-01-19T02:34:45;12.80;;;9.20;;
43877;SDS011;29815;48.184;11.268;2023-01-19T02:37:15;12.23;;;8.55;;
43877;SDS011;29815;48.184;11.268;2023-01-19T02:39:48;16.60;;;9.93;;
43877;SDS011;29815;48.184;11.268;2023-01-19T02:42:22;12.68;;;9.65;;
43877;SDS011;29815;48.184;11.268;2023-01-19T02:44:57;11.13;;;8.23;;
43877;SDS011;29815;48.184;11.268;2023-01-19T02:47:26;13.80;;;10.05;;
43877;SDS011;29815;48.184;11.268;2023-01-19T02:53:23;11.68;;;9.13;;
43877;SDS011;29815;48.184;11.268;2023-01-19T02:56:50;14.95;;;9.30;;
43877;SDS011;29815;48.184;11.268;2023-01-19T02:59:50;13.13;;;9.98;;
43877;SDS011;29815;48.184;11.268;2023-01-19T03:02:42;14.32;;;9.65;;
43877;SDS011;29815;48.184;11.268;2023-01-19T03:05:31;14.80;;;10.25;;
43877;SDS011;29815;48.184;11.268;2023-01-19T03:08:20;13.18;;;9.25;;
43877;SDS011;29815;48.184;11.268;2023-01-19T03:11:00;13.25;;;9.23;;
43877;SDS011;29815;48.184;11.268;2023-01-19T03:13:36;12.52;;;9.10;;
43877;SDS011;29815;48.184;11.268;2023-01-19T03:16:16;13.68;;;10.27;;
43877;SDS011;29815;48.184;11.268;2023-01-19T03:18:50;18.85;;;10.48;;
43877;SDS011;29815;48.184;11.268;2023-01-19T03:21:25;13.75;;;10.18;;
43877;SDS011;29815;48.184;11.268;2023-01-19T03:23:56;14.73;;;10.00;;
43877;SDS011;29815;48.184;11.268;2023-01-19T03:26:31;14.45;;;10.98;;
43877;SDS011;29815;48.184;11.268;2023-01-19T03:29:08;14.20;;;9.43;;
43877;SDS011;29815;48.184;11.268;2023-01-19T03:31:42;16.55;;;10.73;;
43877;SDS011;29815;48.184;11.268;2023-01-19T03:34:15;14.10;;;10.80;;
43877;SDS011;29815;48.184;11.268;2023-01-19T03:36:49;13.70;;;10.32;;
43877;SDS011;29815;48.184;11.268;2023-01-19T03:39:23;13.57;;;9.70;;
43877;SDS011;29815;48.184;11.268;2023-01-19T03:41:56;14.30;;;10.10;;
43877;SDS011;29815;48.184;11.268;2023-01-19T03:44:31;14.93;;;10.23;;
43877;SDS011;29815;48.184;11.268;2023-01-19T03:47:04;15.43;;;10.90;;
43877;SDS011;29815;48.184;11.268;2023-01-19T03:49:37;16.25;;;10.82;;
43877;SDS011;29815;48.184;11.268;2023-01-19T03:52:09;11.73;;;10.15;;
43877;SDS011;29815;48.184;11.268;2023-01-19T03:54:40;14.55;;;10.90;;
43877;SDS011;29815;48.184;11.268;2023-01-19T03:57:10;15.77;;;10.57;;
43877;SDS011;29815;48.184;11.268;2023-01-19T03:59:41;15.82;;;11.40;;
43877;SDS011;29815;48.184;11.268;2023-01-19T04:02:10;12.48;;;10.45;;
43877;SDS011;29815;48.184;11.268;2023-01-19T04:04:40;15.70;;;12.45;;
43877;SDS011;29815;48.184;11.268;2023-01-19T04:07:09;14.63;;;11.25;;
43877;SDS011;29815;48.184;11.268;2023-01-19T04:09:39;14.68;;;10.60;;
43877;SDS011;29815;48.184;11.268;2023-01-19T04:12:09;14.88;;;10.82;;
43877;SDS011;29815;48.184;11.268;2023-01-19T04:14:38;15.80;;;11.52;;
43877;SDS011;29815;48.184;11.268;2023-01-19T04:17:09;15.10;;;10.93;;
43877;SDS011;29815;48.184;11.268;2023-01-19T04:19:39;18.17;;;12.50;;
43877;SDS011;29815;48.184;11.268;2023-01-19T04:22:09;13.70;;;10.75;;
43877;SDS011;29815;48.184;11.268;2023-01-19T04:24:39;18.42;;;12.20;;
43877;SDS011;29815;48.184;11.268;2023-01-19T04:27:08;14.18;;;11.60;;
43877;SDS011;29815;48.184;11.268;2023-01-19T04:29:38;17.80;;;11.15;;
43877;SDS011;29815;48.184;11.268;2023-01-19T04:32:09;15.63;;;10.93;;
43877;SDS011;29815;48.184;11.268;2023-01-19T04:34:41;17.20;;;10.55;;
43877;SDS011;29815;48.184;11.268;2023-01-19T04:37:10;16.23;;;11.18;;
43877;SDS011;29815;48.184;11.268;2023-01-19T04:39:40;17.60;;;12.05;;
43877;SDS011;29815;48.184;11.268;2023-01-19T04:42:09;14.57;;;11.15;;
43877;SDS011;29815;48.184;11.268;2023-01-19T04:44:40;16.10;;;11.52;;
43877;SDS011;29815;48.184;11.268;2023-01-19T04:47:10;18.95;;;12.63;;
43877;SDS011;29815;48.184;11.268;2023-01-19T04:49:39;17.15;;;11.85;;
43877;SDS011;29815;48.184;11.268;2023-01-19T04:52:09;20.30;;;11.40;;
43877;SDS011;29815;48.184;11.268;2023-01-19T04:54:38;14.13;;;11.52;;
43877;SDS011;29815;48.184;11.268;2023-01-19T04:57:08;20.17;;;11.90;;
43877;SDS011;29815;48.184;11.268;2023-01-19T04:59:37;20.15;;;12.48;;
43877;SDS011;29815;48.184;11.268;2023-01-19T05:02:08;19.70;;;12.85;;
43877;SDS011;29815;48.184;11.268;2023-01-19T05:04:38;20.30;;;13.38;;
43877;SDS011;29815;48.184;11.268;2023-01-19T05:07:07;23.05;;;13.63;;
43877;SDS011;29815;48.184;11.268;2023-01-19T05:09:37;23.13;;;14.27;;
43877;SDS011;29815;48.184;11.268;2023-01-19T05:12:07;24.77;;;14.10;;
43877;SDS011;29815;48.184;11.268;2023-01-19T05:14:36;19.55;;;13.25;;
43877;SDS011;29815;48.184;11.268;2023-01-19T05:17:06;21.38;;;13.45;;
43877;SDS011;29815;48.184;11.268;2023-01-19T05:19:36;19.27;;;13.05;;
43877;SDS011;29815;48.184;11.268;2023-01-19T05:22:06;17.23;;;12.43;;
43877;SDS011;29815;48.184;11.268;2023-01-19T05:24:35;18.77;;;12.70;;
43877;SDS011;29815;48.184;11.268;2023-01-19T05:27:05;17.77;;;12.70;;
43877;SDS011;29815;48.184;11.268;2023-01-19T05:29:34;22.55;;;13.45;;
43877;SDS011;29815;48.184;11.268;2023-01-19T05:32:04;21.08;;;14.25;;
43877;SDS011;29815;48.184;11.268;2023-01-19T05:34:33;18.92;;;14.10;;
43877;SDS011;29815;48.184;11.268;2023-01-19T05:37:04;21.02;;;15.25;;
43877;SDS011;29815;48.184;11.268;2023-01-19T05:39:34;22.38;;;14.70;;
43877;SDS011;29815;48.184;11.268;2023-01-19T05:42:03;21.45;;;14.25;;
43877;SDS011;29815;48.184;11.268;2023-01-19T05:44:33;18.73;;;13.45;;
43877;SDS011;29815;48.184;11.268;2023-01-19T05:47:03;18.38;;;13.05;;
43877;SDS011;29815;48.184;11.268;2023-01-19T05:49:32;20.88;;;13.80;;
43877;SDS011;29815;48.184;11.268;2023-01-19T05:52:02;23.15;;;13.07;;
43877;SDS011;29815;48.184;11.268;2023-01-19T05:54:34;20.77;;;14.05;;
43877;SDS011;29815;48.184;11.268;2023-01-19T05:57:03;21.38;;;13.95;;
43877;SDS011;29815;48.184;11.268;2023-01-19T05:59:33;28.42;;;14.63;;
43877;SDS011;29815;48.184;11.268;2023-01-19T06:02:03;22.20;;;14.75;;
43877;SDS011;29815;48.184;11.268;2023-01-19T06:04:32;21.40;;;14.88;;
43877;SDS011;29815;48.184;11.268;2023-01-19T06:07:02;24.52;;;14.00;;
43877;SDS011;29815;48.184;11.268;2023-01-19T06:09:33;25.05;;;15.13;;
43877;SDS011;29815;48.184;11.268;2023-01-19T06:12:03;18.85;;;13.18;;
43877;SDS011;29815;48.184;11.268;2023-01-19T06:14:34;21.95;;;13.10;;
43877;SDS011;29815;48.184;11.268;2023-01-19T06:17:04;22.85;;;13.98;;
43877;SDS011;29815;48.184;11.268;2023-01-19T06:19:34;23.38;;;14.77;;
43877;SDS011;29815;48.184;11.268;2023-01-19T06:22:05;22.38;;;14.77;;
43877;SDS011;29815;48.184;11.268;2023-01-19T06:24:34;20.83;;;14.23;;
43877;SDS011;29815;48.184;11.268;2023-01-19T06:27:04;18.05;;;13.25;;
43877;SDS011;29815;48.184;11.268;2023-01-19T06:29:33;22.77;;;15.02;;
43877;SDS011;29815;48.184;11.268;2023-01-19T06:32:03;21.00;;;13.13;;
43877;SDS011;29815;48.184;11.268;2023-01-19T06:34:33;20.90;;;13.50;;
43877;SDS011;29815;48.184;11.268;2023-01-19T06:37:04;26.85;;;14.68;;
43877;SDS011;29815;48.184;11.268;2023-01-19T06:39:34;22.70;;;13.88;;
43877;SDS011;29815;48.184;11.268;2023-01-19T06:42:04;21.40;;;14.02;;
43877;SDS011;29815;48.184;11.268;2023-01-19T06:44:33;23.75;;;14.60;;
43877;SDS011;29815;48.184;11.268;2023-01-19T06:47:03;25.55;;;14.38;;
43877;SDS011;29815;48.184;11.268;2023-01-19T06:49:42;23.40;;;14.80;;
43877;SDS011;29815;48.184;11.268;2023-01-19T06:52:13;21.75;;;14.30;;
43877;SDS011;29815;48.184;11.268;2023-01-19T06:54:44;20.00;;;13.23;;
43877;SDS011;29815;48.184;11.268;2023-01-19T06:57:16;20.02;;;13.77;;
43877;SDS011;29815;48.184;11.268;2023-01-19T06:59:45;22.25;;;14.48;;
43877;SDS011;29815;48.184;11.268;2023-01-19T07:02:15;19.95;;;13.35;;
43877;SDS011;29815;48.184;11.268;2023-01-19T07:04:54;20.25;;;14.60;;
43877;SDS011;29815;48.184;11.268;2023-01-19T07:07:25;20.58;;;14.65;;
43877;SDS011;29815;48.184;11.268;2023-01-19T07:09:55;20.92;;;15.05;;
43877;SDS011;29815;48.184;11.268;2023-01-19T07:12:24;20.05;;;14.38;;
43877;SDS011;29815;48.184;11.268;2023-01-19T07:14:54;21.50;;;13.25;;
43877;SDS011;29815;48.184;11.268;2023-01-19T07:17:23;19.50;;;14.43;;
43877;SDS011;29815;48.184;11.268;2023-01-19T07:19:53;22.00;;;14.13;;
43877;SDS011;29815;48.184;11.268;2023-01-19T07:22:22;21.38;;;13.88;;
43877;SDS011;29815;48.184;11.268;2023-01-19T07:24:53;25.35;;;15.73;;
43877;SDS011;29815;48.184;11.268;2023-01-19T07:27:23;28.52;;;16.08;;
43877;SDS011;29815;48.184;11.268;2023-01-19T07:29:54;21.95;;;13.98;;
43877;SDS011;29815;48.184;11.268;2023-01-19T07:32:24;30.25;;;16.38;;
43877;SDS011;29815;48.184;11.268;2023-01-19T07:34:53;27.38;;;16.80;;
43877;SDS011;29815;48.184;11.268;2023-01-19T07:37:23;24.10;;;15.32;;
43877;SDS011;29815;48.184;11.268;2023-01-19T07:39:53;21.60;;;14.32;;
43877;SDS011;29815;48.184;11.268;2023-01-19T07:42:23;26.55;;;16.60;;
43877;SDS011;29815;48.184;11.268;2023-01-19T07:44:52;24.77;;;15.27;;
43877;SDS011;29815;48.184;11.268;2023-01-19T07:47:22;21.30;;;14.75;;
43877;SDS011;29815;48.184;11.268;2023-01-19T07:49:51;20.85;;;14.40;;
43877;SDS011;29815;48.184;11.268;2023-01-19T07:52:21;20.88;;;13.50;;
43877;SDS011;29815;48.184;11.268;2023-01-19T07:54:50;23.67;;;15.10;;
43877;SDS011;29815;48.184;11.268;2023-01-19T07:57:21;23.05;;;13.85;;
43877;SDS011;29815;48.184;11.268;2023-01-19T07:59:50;18.10;;;11.93;;
43877;SDS011;29815;48.184;11.268;2023-01-19T08:02:20;20.52;;;12.90;;
43877;SDS011;29815;48.184;11.268;2023-01-19T08:04:49;20.17;;;14.75;;
43877;SDS011;29815;48.184;11.268;2023-01-19T08:07:19;22.63;;;14.38;;
43877;SDS011;29815;48.184;11.268;2023-01-19T08:09:48;20.73;;;14.38;;
43877;SDS011;29815;48.184;11.268;2023-01-19T08:12:18;19.13;;;13.88;;
43877;SDS011;29815;48.184;11.268;2023-01-19T08:14:48;26.42;;;14.45;;
43877;SDS011;29815;48.184;11.268;2023-01-19T08:17:18;21.60;;;12.82;;
43877;SDS011;29815;48.184;11.268;2023-01-19T08:19:47;20.25;;;12.40;;
43877;SDS011;29815;48.184;11.268;2023-01-19T08:22:17;18.40;;;12.65;;
43877;SDS011;29815;48.184;11.268;2023-01-19T08:24:46;18.70;;;13.00;;
43877;SDS011;29815;48.184;11.268;2023-01-19T08:27:19;22.10;;;12.77;;
43877;SDS011;29815;48.184;11.268;2023-01-19T08:29:50;18.10;;;12.90;;
43877;SDS011;29815;48.184;11.268;2023-01-19T08:32:21;19.15;;;12.88;;
43877;SDS011;29815;48.184;11.268;2023-01-19T08:34:50;18.02;;;13.88;;
43877;SDS011;29815;48.184;11.268;2023-01-19T08:37:19;17.40;;;10.95;;
43877;SDS011;29815;48.184;11.268;2023-01-19T08:39:49;16.23;;;12.68;;
43877;SDS011;29815;48.184;11.268;2023-01-19T08:42:20;17.42;;;12.88;;
43877;SDS011;29815;48.184;11.268;2023-01-19T08:44:51;24.08;;;13.18;;
43877;SDS011;29815;48.184;11.268;2023-01-19T08:47:24;18.67;;;12.93;;
43877;SDS011;29815;48.184;11.268;2023-01-19T08:49:54;17.05;;;12.38;;
43877;SDS011;29815;48.184;11.268;2023-01-19T08:52:23;17.65;;;13.10;;
43877;SDS011;29815;48.184;11.268;2023-01-19T08:54:55;14.63;;;10.82;;
43877;SDS011;29815;48.184;11.268;2023-01-19T08:57:25;16.92;;;10.90;;
43877;SDS011;29815;48.184;11.268;2023-01-19T08:59:56;20.75;;;13.15;;
43877;SDS011;29815;48.184;11.268;2023-01-19T09:02:26;15.32;;;11.45;;
43877;SDS011;29815;48.184;11.268;2023-01-19T09:04:56;18.13;;;12.20;;
43877;SDS011;29815;48.184;11.268;2023-01-19T09:07:25;19.50;;;11.40;;
43877;SDS011;29815;48.184;11.268;2023-01-19T09:09:57;12.75;;;8.73;;
43877;SDS011;29815;48.184;11.268;2023-01-19T09:12:27;17.50;;;11.43;;
43877;SDS011;29815;48.184;11.268;2023-01-19T09:14:58;20.55;;;12.80;;
43877;SDS011;29815;48.184;11.268;2023-01-19T09:17:27;16.33;;;10.63;;
43877;SDS011;29815;48.184;11.268;2023-01-19T09:19:57;14.50;;;10.85;;
43877;SDS011;29815;48.184;11.268;2023-01-19T09:22:26;17.65;;;10.95;;
43877;SDS011;29815;48.184;11.268;2023-01-19T09:24:56;15.63;;;11.07;;
43877;SDS011;29815;48.184;11.268;2023-01-19T09:27:26;14.52;;;10.50;;
43877;SDS011;29815;48.184;11.268;2023-01-19T09:29:55;20.50;;;11.57;;
43877;SDS011;29815;48.184;11.268;2023-01-19T09:32:26;14.45;;;10.32;;
43877;SDS011;29815;48.184;11.268;2023-01-19T09:34:55;14.57;;;9.50;;
43877;SDS011;29815;48.184;11.268;2023-01-19T09:37:25;15.15;;;10.50;;
43877;SDS011;29815;48.184;11.268;2023-01-19T09:39:54;16.02;;;11.80;;
43877;SDS011;29815;48.184;11.268;2023-01-19T09:42:26;17.02;;;10.52;;
43877;SDS011;29815;48.184;11.268;2023-01-19T09:45:09;13.25;;;8.88;;
43877;SDS011;29815;48.184;11.268;2023-01-19T09:47:47;16.83;;;9.48;;
43877;SDS011;29815;48.184;11.268;2023-01-19T09:50:19;15.77;;;10.60;;
43877;SDS011;29815;48.184;11.268;2023-01-19T09:52:56;16.17;;;10.63;;
43877;SDS011;29815;48.184;11.268;2023-01-19T09:55:33;15.30;;;9.70;;
43877;SDS011;29815;48.184;11.268;2023-01-19T09:58:03;12.90;;;8.73;;
43877;SDS011;29815;48.184;11.268;2023-01-19T10:00:40;11.68;;;8.25;;
43877;SDS011;29815;48.184;11.268;2023-01-19T10:03:14;13.32;;;9.10;;
43877;SDS011;29815;48.184;11.268;2023-01-19T10:05:48;14.43;;;10.18;;
43877;SDS011;29815;48.184;11.268;2023-01-19T10:08:24;17.05;;;10.57;;
43877;SDS011;29815;48.184;11.268;2023-01-19T10:11:10;13.75;;;8.77;;
43877;SDS011;29815;48.184;11.268;2023-01-19T10:14:14;10.50;;;8.25;;
43877;SDS011;29815;48.184;11.268;2023-01-19T10:16:59;11.93;;;8.30;;
43877;SDS011;29815;48.184;11.268;2023-01-19T10:19:42;11.70;;;7.82;;
43877;SDS011;29815;48.184;11.268;2023-01-19T10:22:18;18.48;;;8.82;;
43877;SDS011;29815;48.184;11.268;2023-01-19T10:24:52;13.18;;;7.82;;
43877;SDS011;29815;48.184;11.268;2023-01-19T10:27:27;13.25;;;8.80;;
43877;SDS011;29815;48.184;11.268;2023-01-19T10:30:00;12.82;;;8.18;;
43877;SDS011;29815;48.184;11.268;2023-01-19T10:32:33;9.65;;;8.23;;
43877;SDS011;29815;48.184;11.268;2023-01-19T10:35:06;17.80;;;8.10;;
43877;SDS011;29815;48.184;11.268;2023-01-19T10:37:48;13.10;;;7.68;;
43877;SDS011;29815;48.184;11.268;2023-01-19T10:40:21;13.10;;;8.30;;
43877;SDS011;29815;48.184;11.268;2023-01-19T10:43:00;10.68;;;7.35;;
43877;SDS011;29815;48.184;11.268;2023-01-19T10:46:05;11.20;;;7.75;;
43877;SDS011;29815;48.184;11.268;2023-01-19T10:48:48;9.90;;;6.60;;
43877;SDS011;29815;48.184;11.268;2023-01-19T10:51:21;10.15;;;7.03;;
43877;SDS011;29815;48.184;11.268;2023-01-19T10:53:57;9.65;;;6.78;;
43877;SDS011;29815;48.184;11.268;2023-01-19T10:56:30;13.18;;;7.15;;
43877;SDS011;29815;48.184;11.268;2023-01-19T10:59:04;13.60;;;7.88;;
43877;SDS011;29815;48.184;11.268;2023-01-19T11:01:36;9.55;;;6.47;;
43877;SDS011;29815;48.184;11.268;2023-01-19T11:07:03;10.15;;;6.07;;
43877;SDS011;29815;48.184;11.268;2023-01-19T11:09:45;8.05;;;5.72;;
43877;SDS011;29815;48.184;11.268;2023-01-19T11:12:16;9.15;;;5.30;;
43877;SDS011;29815;48.184;11.268;2023-01-19T11:14:49;8.32;;;5.95;;
43877;SDS011;29815;48.184;11.268;2023-01-19T11:17:21;8.95;;;5.72;;
43877;SDS011;29815;48.184;11.268;2023-01-19T11:19:58;7.22;;;5.20;;
43877;SDS011;29815;48.184;11.268;2023-01-19T11:22:30;7.47;;;5.50;;
43877;SDS011;29815;48.184;11.268;2023-01-19T11:25:01;5.55;;;4.20;;
43877;SDS011;29815;48.184;11.268;2023-01-19T11:27:33;9.80;;;5.45;;
43877;SDS011;29815;48.184;11.268;2023-01-19T11:30:05;10.98;;;6.47;;
43877;SDS011;29815;48.184;11.268;2023-01-19T11:32:47;9.43;;;5.47;;
43877;SDS011;29815;48.184;11.268;2023-01-19T11:35:37;7.28;;;5.70;;
43877;SDS011;29815;48.184;11.268;2023-01-19T11:38:16;8.73;;;5.22;;
43877;SDS011;29815;48.184;11.268;2023-01-19T11:40:50;10.32;;;5.32;;
43877;SDS011;29815;48.184;11.268;2023-01-19T11:43:23;7.63;;;5.32;;
43877;SDS011;29815;48.184;11.268;2023-01-19T11:46:14;11.75;;;5.80;;
43877;SDS011;29815;48.184;11.268;2023-01-19T11:48:45;8.50;;;5.32;;
43877;SDS011;29815;48.184;11.268;2023-01-19T11:51:25;6.85;;;5.60;;
43877;SDS011;29815;48.184;11.268;2023-01-19T11:54:05;7.30;;;5.57;;
43877;SDS011;29815;48.184;11.268;2023-01-19T11:56:47;8.27;;;5.70;;
43877;SDS011;29815;48.184;11.268;2023-01-19T11:59:18;7.40;;;5.63;;
43877;SDS011;29815;48.184;11.268;2023-01-19T12:01:52;7.15;;;4.93;;
43877;SDS011;29815;48.184;11.268;2023-01-19T12:04:26;6.63;;;4.95;;
43877;SDS011;29815;48.184;11.268;2023-01-19T12:07:04;9.65;;;6.20;;
43877;SDS011;29815;48.184;11.268;2023-01-19T12:09:37;8.68;;;5.97;;
43877;SDS011;29815;48.184;11.268;2023-01-19T12:12:14;10.63;;;6.32;;
43877;SDS011;29815;48.184;11.268;2023-01-19T12:14:56;9.25;;;6.10;;
43877;SDS011;29815;48.184;11.268;2023-01-19T12:17:32;11.20;;;5.15;;
43877;SDS011;29815;48.184;11.268;2023-01-19T12:20:12;12.02;;;6.22;;
43877;SDS011;29815;48.184;11.268;2023-01-19T12:22:56;8.32;;;5.20;;
43877;SDS011;29815;48.184;11.268;2023-01-19T12:25:52;8.43;;;5.50;;
43877;SDS011;29815;48.184;11.268;2023-01-19T12:28:38;9.63;;;5.82;;
43877;SDS011;29815;48.184;11.268;2023-01-19T12:31:12;7.78;;;5.43;;
43877;SDS011;29815;48.184;11.268;2023-01-19T12:33:45;10.38;;;5.18;;
43877;SDS011;29815;48.184;11.268;2023-01-19T12:36:36;7.68;;;5.93;;
43877;SDS011;29815;48.184;11.268;2023-01-19T12:39:12;6.93;;;4.18;;
43877;SDS011;29815;48.184;11.268;2023-01-19T12:41:47;11.10;;;5.53;;
43877;SDS011;29815;48.184;11.268;2023-01-19T12:44:39;7.80;;;4.22;;
43877;SDS011;29815;48.184;11.268;2023-01-19T12:47:17;9.88;;;4.80;;
43877;SDS011;29815;48.184;11.268;2023-01-19T12:49:51;13.07;;;5.45;;
43877;SDS011;29815;48.184;11.268;2023-01-19T12:52:29;9.02;;;4.50;;
43877;SDS011;29815;48.184;11.268;2023-01-19T12:55:06;8.48;;;4.78;;
43877;SDS011;29815;48.184;11.268;2023-01-19T12:57:55;7.00;;;4.60;;
43877;SDS011;29815;48.184;11.268;2023-01-19T13:00:34;7.47;;;4.65;;
43877;SDS011;29815;48.184;11.268;2023-01-19T13:09:37;8.00;;;4.38;;
43877;SDS011;29815;48.184;11.268;2023-01-19T13:12:10;9.38;;;4.88;;
43877;SDS011;29815;48.184;11.268;2023-01-19T13:18:00;9.20;;;4.70;;
43877;SDS011;29815;48.184;11.268;2023-01-19T13:20:30;7.65;;;4.40;;
43877;SDS011;29815;48.184;11.268;2023-01-19T13:23:16;10.18;;;5.40;;
43877;SDS011;29815;48.184;11.268;2023-01-19T13:25:53;9.40;;;4.38;;
43877;SDS011;29815;48.184;11.268;2023-01-19T13:28:36;8.23;;;5.53;;
43877;SDS011;29815;48.184;11.268;2023-01-19T13:31:10;9.55;;;4.97;;
43877;SDS011;29815;48.184;11.268;2023-01-19T13:33:43;7.47;;;4.25;;
43877;SDS011;29815;48.184;11.268;2023-01-19T13:36:19;9.40;;;4.05;;
43877;SDS011;29815;48.184;11.268;2023-01-19T13:38:56;6.57;;;4.07;;
43877;SDS011;29815;48.184;11.268;2023-01-19T13:41:33;6.30;;;3.53;;
43877;SDS011;29815;48.184;11.268;2023-01-19T13:44:11;8.00;;;3.90;;
43877;SDS011;29815;48.184;11.268;2023-01-19T13:46:48;9.65;;;5.22;;
43877;SDS011;29815;48.184;11.268;2023-01-19T13:49:21;7.07;;;3.92;;
43877;SDS011;29815;48.184;11.268;2023-01-19T13:52:11;7.50;;;4.05;;
43877;SDS011;29815;48.184;11.268;2023-01-19T13:54:47;5.15;;;3.75;;
43877;SDS011;29815;48.184;11.268;2023-01-19T13:57:21;6.53;;;4.25;;
43877;SDS011;29815;48.184;11.268;2023-01-19T14:00:05;6.72;;;3.90;;
43877;SDS011;29815;48.184;11.268;2023-01-19T14:02:56;6.72;;;4.68;;
43877;SDS011;29815;48.184;11.268;2023-01-19T14:05:47;8.98;;;4.60;;
43877;SDS011;29815;48.184;11.268;2023-01-19T14:12:45;10.73;;;5.55;;
43877;SDS011;29815;48.184;11.268;2023-01-19T14:15:27;9.45;;;5.55;;
43877;SDS011;29815;48.184;11.268;2023-01-19T14:18:06;7.97;;;4.60;;
43877;SDS011;29815;48.184;11.268;2023-01-19T14:20:58;7.45;;;5.07;;
43877;SDS011;29815;48.184;11.268;2023-01-19T14:23:41;12.90;;;5.25;;
43877;SDS011;29815;48.184;11.268;2023-01-19T14:29:23;6.35;;;4.97;;
43877;SDS011;29815;48.184;11.268;2023-01-19T14:32:06;8.38;;;5.07;;
43877;SDS011;29815;48.184;11.268;2023-01-19T14:34:44;7.55;;;4.97;;
43877;SDS011;29815;48.184;11.268;2023-01-19T14:37:19;8.27;;;5.45;;
43877;SDS011;29815;48.184;11.268;2023-01-19T14:39:54;12.70;;;6.65;;
43877;SDS011;29815;48.184;11.268;2023-01-19T14:42:31;8.32;;;5.72;;
43877;SDS011;29815;48.184;11.268;2023-01-19T14:45:07;10.30;;;5.68;;
43877;SDS011;29815;48.184;11.268;2023-01-19T14:47:51;9.73;;;5.85;;
43877;SDS011;29815;48.184;11.268;2023-01-19T14:50:26;8.35;;;4.95;;
43877;SDS011;29815;48.184;11.268;2023-01-19T14:53:01;9.60;;;5.75;;
43877;SDS011;29815;48.184;11.268;2023-01-19T14:55:35;8.07;;;5.20;;
43877;SDS011;29815;48.184;11.268;2023-01-19T14:58:12;8.23;;;5.13;;
43877;SDS011;29815;48.184;11.268;2023-01-19T15:00:47;9.82;;;5.82;;
43877;SDS011;29815;48.184;11.268;2023-01-19T15:03:22;9.93;;;6.53;;
43877;SDS011;29815;48.184;11.268;2023-01-19T15:06:09;6.32;;;4.68;;
43877;SDS011;29815;48.184;11.268;2023-01-19T15:08:42;8.88;;;6.47;;
43877;SDS011;29815;48.184;11.268;2023-01-19T15:11:15;8.90;;;6.32;;
43877;SDS011;29815;48.184;11.268;2023-01-19T15:13:50;12.43;;;5.93;;
43877;SDS011;29815;48.184;11.268;2023-01-19T15:16:21;11.63;;;6.55;;
43877;SDS011;29815;48.184;11.268;2023-01-19T15:18:51;9.05;;;6.15;;
43877;SDS011;29815;48.184;11.268;2023-01-19T15:21:21;8.70;;;6.35;;
43877;SDS011;29815;48.184;11.268;2023-01-19T15:23:54;12.07;;;5.93;;